Time;durP1;ratioP1;P1;durP2;ratioP2;P2;SDS_P1;SDS_P2;PMS_P1;PMS_P2;Temp;Humidity;BMP_temperature;BMP_pressure;BME280_temperature;BME280_humidity;BME280_pressure;Samples;Min_cycle;Max_cycle;Signal;HPM_P1;HPM_P2
2021/03/18 00:01:13;;;;;;;5.63;5.17;;;1.90;92.80;;;;;;6080503;23;20228;-88
2021/03/18 00:03:42;;;;;;;5.85;5.40;;;2.20;92.80;;;;;;6080412;23;20147;-88
2021/03/18 00:06:11;;;;;;;8.52;5.63;;;2.00;92.60;;;;;;6079222;23;20224;-88
2021/03/18 00:08:38;;;;;;;5.30;4.80;;;1.80;93.30;;;;;;6080320;23;20155;-88
2021/03/18 00:11:11;;;;;;;6.22;5.68;;;1.80;93.80;;;;;;6082226;23;20174;-87
2021/03/18 00:13:39;;;;;;;9.02;6.18;;;1.80;94.30;;;;;;6077841;23;20153;-89
2021/03/18 00:16:06;;;;;;;6.90;6.35;;;1.80;94.40;;;;;;6078687;23;20162;-88
2021/03/18 00:18:42;;;;;;;8.10;7.30;;;1.70;94.10;;;;;;6081316;23;20154;-88
2021/03/18 00:21:09;;;;;;;7.30;6.25;;;1.70;93.40;;;;;;6088522;23;20189;-86
2021/03/18 00:23:35;;;;;;;10.48;8.50;;;1.60;94.60;;;;;;6087416;23;20214;-88
2021/03/18 00:26:01;;;;;;;8.50;7.80;;;1.50;97.00;;;;;;6077819;23;20154;-88
2021/03/18 00:28:28;;;;;;;9.20;6.80;;;1.30;97.30;;;;;;6077828;23;20161;-88
2021/03/18 00:30:54;;;;;;;14.18;10.25;;;1.60;97.80;;;;;;6103996;23;20161;-90
2021/03/18 00:33:19;;;;;;;15.10;9.93;;;1.50;97.70;;;;;;6078605;23;20482;-88
2021/03/18 00:35:45;;;;;;;10.80;9.03;;;1.50;97.70;;;;;;6077651;23;20154;-89
2021/03/18 00:38:12;;;;;;;8.60;6.80;;;1.50;97.40;;;;;;6080972;23;20563;-88
2021/03/18 00:40:51;;;;;;;10.13;7.10;;;1.50;96.90;;;;;;6102845;23;20782;-88
2021/03/18 00:43:19;;;;;;;7.75;7.05;;;1.40;95.50;;;;;;6103360;23;20153;-88
2021/03/18 00:45:47;;;;;;;7.80;7.10;;;1.30;96.90;;;;;;6082061;23;20150;-88
2021/03/18 00:48:15;;;;;;;8.05;7.38;;;1.20;96.80;;;;;;6105096;23;20580;-88
2021/03/18 00:50:56;;;;;;;9.18;8.25;;;1.20;96.30;;;;;;6076128;23;20158;-88
2021/03/18 00:53:29;;;;;;;9.60;7.57;;;1.50;95.50;;;;;;6102656;23;20150;-89
2021/03/18 00:55:56;;;;;;;13.93;6.53;;;1.80;95.40;;;;;;6099718;23;20145;-88
2021/03/18 00:58:22;;;;;;;10.93;7.00;;;1.40;94.80;;;;;;6074743;23;20184;-87
2021/03/18 01:00:51;;;;;;;8.15;7.45;;;1.60;96.70;;;;;;6099774;23;20630;-87
2021/03/18 01:03:17;;;;;;;7.85;7.15;;;1.50;96.70;;;;;;6073264;23;20196;-88
2021/03/18 01:05:46;;;;;;;8.93;7.93;;;1.50;96.70;;;;;;6101115;23;20146;-88
2021/03/18 01:08:14;;;;;;;7.55;6.68;;;1.20;96.70;;;;;;6100236;23;20146;-89
2021/03/18 01:10:46;;;;;;;9.52;7.47;;;1.00;95.80;;;;;;6101863;23;20146;-89
2021/03/18 01:13:19;;;;;;;8.45;6.82;;;1.10;96.30;;;;;;6075318;23;20531;-87
2021/03/18 01:15:57;;;;;;;7.72;7.03;;;1.10;94.50;;;;;;6075195;23;20152;-88
2021/03/18 01:18:28;;;;;;;8.52;7.72;;;1.20;96.00;;;;;;6076168;23;20221;-88
2021/03/18 01:20:55;;;;;;;8.02;7.40;;;1.10;95.80;;;;;;6077665;23;20264;-88
2021/03/18 01:23:21;;;;;;;9.20;6.22;;;1.30;94.60;;;;;;6102491;23;20181;-88
2021/03/18 01:25:47;;;;;;;6.57;6.07;;;1.40;96.10;;;;;;6077273;23;20158;-89
2021/03/18 01:28:13;;;;;;;6.27;5.80;;;1.30;96.30;;;;;;6077381;23;20198;-88
2021/03/18 01:30:40;;;;;;;7.43;6.77;;;1.20;96.90;;;;;;6077125;23;20610;-88
2021/03/18 01:33:08;;;;;;;7.05;6.53;;;1.20;99.90;;;;;;6078642;23;20150;-88
2021/03/18 01:35:35;;;;;;;8.63;7.75;;;1.10;99.80;;;;;;6078355;23;20189;-88
2021/03/18 01:38:00;;;;;;;12.88;7.47;;;1.00;98.80;;;;;;6079292;23;20154;-88
2021/03/18 01:40:31;;;;;;;9.80;8.87;;;1.20;98.80;;;;;;6078791;23;20645;-89
2021/03/18 01:42:57;;;;;;;6.60;6.00;;;1.20;99.00;;;;;;6078053;23;20199;-87
2021/03/18 01:45:24;;;;;;;6.68;6.28;;;1.20;98.80;;;;;;6077316;23;20154;-87
2021/03/18 01:47:54;;;;;;;7.53;5.90;;;1.50;98.30;;;;;;6077137;23;20189;-88
2021/03/18 01:50:25;;;;;;;8.23;6.13;;;1.30;98.10;;;;;;6076622;23;20157;-87
2021/03/18 01:52:51;;;;;;;6.10;5.80;;;1.30;98.10;;;;;;6101405;23;20142;-88
2021/03/18 01:55:37;;;;;;;7.10;6.55;;;1.20;98.20;;;;;;6077386;23;20222;-88
2021/03/18 01:58:04;;;;;;;6.10;5.70;;;1.30;96.60;;;;;;6077208;23;20157;-88
2021/03/18 02:00:30;;;;;;;6.40;5.90;;;1.20;98.20;;;;;;6076351;23;20508;-88
2021/03/18 02:02:57;;;;;;;7.10;6.50;;;1.10;98.00;;;;;;6100213;23;20150;-87
2021/03/18 02:05:23;;;;;;;9.48;7.65;;;1.30;97.90;;;;;;6100874;23;20378;-88
2021/03/18 02:07:52;;;;;;;7.28;6.65;;;1.30;97.70;;;;;;6076198;23;20150;-88
2021/03/18 02:10:23;;;;;;;11.10;7.18;;;1.30;97.70;;;;;;6076829;23;20158;-89
2021/03/18 02:12:49;;;;;;;8.15;7.55;;;1.10;98.00;;;;;;6076306;23;20146;-88
2021/03/18 02:15:17;;;;;;;7.80;7.27;;;0.90;98.10;;;;;;6076809;23;20150;-88
2021/03/18 02:18:00;;;;;;;15.98;7.90;;;1.00;98.20;;;;;;6078214;23;20349;-89
2021/03/18 02:21:02;;;;;;;8.48;6.65;;;1.10;97.10;;;;;;6082942;23;20269;-89
2021/03/18 02:23:53;;;;;;;8.35;6.55;;;1.50;98.10;;;;;;6207942;23;20238;-88
2021/03/18 02:26:39;;;;;;;7.15;6.45;;;1.30;97.50;;;;;;6205254;23;20154;-88
2021/03/18 02:29:36;;;;;;;10.35;9.45;;;1.20;97.30;;;;;;6205828;23;20150;-87
2021/03/18 02:32:22;;;;;;;12.63;8.60;;;1.40;98.50;;;;;;6206724;23;20220;-88
2021/03/18 02:35:16;;;;;;;8.07;6.72;;;1.20;99.50;;;;;;6103944;23;20141;-87
2021/03/18 02:37:48;;;;;;;7.32;6.45;;;1.20;98.40;;;;;;6207646;23;20212;-87
2021/03/18 02:40:17;;;;;;;6.47;6.07;;;1.10;99.50;;;;;;6081859;23;20200;-88
2021/03/18 02:42:48;;;;;;;8.00;7.30;;;1.10;99.90;;;;;;6079806;23;20162;-88
2021/03/18 02:45:16;;;;;;;8.02;7.63;;;;;;;;;;6078311;23;20197;-88
2021/03/18 02:47:43;;;;;;;7.78;7.32;;;;;;;;;;6206396;23;20197;-88
2021/03/18 02:50:10;;;;;;;8.13;7.25;;;1.00;99.30;;;;;;6103988;23;20154;-88
2021/03/18 02:52:40;;;;;;;8.15;7.47;;;;;;;;;;6082631;23;20154;-88
2021/03/18 02:55:07;;;;;;;8.90;8.07;;;1.00;99.90;;;;;;6209639;23;20200;-88
2021/03/18 02:57:35;;;;;;;8.95;8.00;;;0.80;99.90;;;;;;6081311;23;20154;-88
2021/03/18 03:00:07;;;;;;;8.65;7.78;;;;;;;;;;6079989;23;20189;-88
2021/03/18 03:02:33;;;;;;;8.13;7.40;;;1.00;99.90;;;;;;6211012;23;20181;-88
2021/03/18 03:05:00;;;;;;;8.68;8.02;;;1.00;99.90;;;;;;6079825;23;20150;-88
2021/03/18 03:07:28;;;;;;;7.82;7.13;;;0.80;99.90;;;;;;6103241;23;20180;-88
2021/03/18 03:09:56;;;;;;;8.48;7.82;;;0.60;99.90;;;;;;6077678;23;20162;-88
2021/03/18 03:12:27;;;;;;;12.18;11.07;;;;;;;;;;6078968;23;20164;-88
2021/03/18 03:14:55;;;;;;;10.50;8.00;;;;;;;;;;6105056;23;20145;-88
2021/03/18 03:17:24;;;;;;;9.75;8.35;;;0.60;99.90;;;;;;6206491;23;20162;-88
2021/03/18 03:19:52;;;;;;;8.45;7.65;;;0.60;99.90;;;;;;6109417;23;20197;-87
2021/03/18 03:22:23;;;;;;;11.95;7.65;;;0.70;99.90;;;;;;6109279;23;20154;-88
2021/03/18 03:24:50;;;;;;;11.60;8.38;;;;;;;;;;6087397;23;20153;-88
2021/03/18 03:27:23;;;;;;;10.30;8.48;;;;;;;;;;6209775;23;20229;-88
2021/03/18 03:29:49;;;;;;;7.80;7.10;;;;;;;;;;6078874;23;20573;-88
2021/03/18 03:32:15;;;;;;;7.53;7.13;;;;;;;;;;6103327;23;20204;-88
2021/03/18 03:34:54;;;;;;;8.23;7.65;;;;;;;;;;6205119;23;20150;-89
2021/03/18 03:37:23;;;;;;;8.80;8.30;;;;;;;;;;6104069;23;20138;-88
2021/03/18 03:39:49;;;;;;;8.98;8.27;;;;;;;;;;6104510;23;20142;-88
2021/03/18 03:42:16;;;;;;;10.43;8.95;;;;;;;;;;6205536;23;20185;-87
2021/03/18 03:44:42;;;;;;;9.15;8.35;;;;;;;;;;6206178;23;20206;-88
2021/03/18 03:47:09;;;;;;;10.43;9.23;;;;;;;;;;6210591;23;20197;-87
2021/03/18 03:49:35;;;;;;;10.20;9.15;;;;;;;;;;6216545;23;20353;-88
2021/03/18 03:52:01;;;;;;;9.43;8.52;;;;;;;;;;6215015;23;20151;-88
2021/03/18 03:54:30;;;;;;;9.73;7.73;;;;;;;;;;6209102;23;20236;-88
2021/03/18 03:57:01;;;;;;;9.40;8.35;;;;;;;;;;6105603;23;20378;-87
2021/03/18 03:59:28;;;;;;;9.77;8.35;;;;;;;;;;6206681;23;20158;-88
2021/03/18 04:01:57;;;;;;;9.27;8.38;;;;;;;;;;6106458;23;20247;-88
2021/03/18 04:04:29;;;;;;;10.20;9.20;;;;;;;;;;6206325;23;20224;-88
2021/03/18 04:06:58;;;;;;;8.90;8.05;;;;;;;;;;6208087;23;20154;-88
2021/03/18 04:09:24;;;;;;;10.65;9.73;;;;;;;;;;6212563;23;20184;-88
2021/03/18 04:11:51;;;;;;;9.88;9.07;;;;;;;;;;6215583;23;20156;-87
2021/03/18 04:14:20;;;;;;;12.05;10.95;;;;;;;;;;6216318;23;20161;-87
2021/03/18 04:16:46;;;;;;;10.18;9.27;;;;;;;;;;6211908;23;20150;-89
2021/03/18 04:19:17;;;;;;;7.85;7.32;;;;;;;;;;6209466;23;20185;-89
2021/03/18 04:21:46;;;;;;;10.05;8.93;;;;;;;;;;6213359;23;20205;-89
2021/03/18 04:24:13;;;;;;;10.77;9.55;;;;;;;;;;6215192;23;20150;-90
2021/03/18 04:26:40;;;;;;;10.40;9.25;;;;;;;;;;6211079;23;20154;-88
2021/03/18 04:29:06;;;;;;;10.25;9.43;;;;;;;;;;6106223;23;20146;-88
2021/03/18 04:31:34;;;;;;;8.88;8.15;;;;;;;;;;6106668;23;20188;-89
2021/03/18 04:34:01;;;;;;;10.63;9.90;;;;;;;;;;6207734;23;20154;-88
2021/03/18 04:36:27;;;;;;;10.25;8.43;;;;;;;;;;6206958;23;20181;-90
2021/03/18 04:38:55;;;;;;;9.77;8.90;;;;;;;;;;6209443;23;20178;-89
2021/03/18 04:41:21;;;;;;;10.90;10.00;;;;;;;;;;6210843;23;20186;-88
2021/03/18 04:43:48;;;;;;;9.88;8.95;;;;;;;;;;6210647;23;20150;-87
2021/03/18 04:46:14;;;;;;;10.40;8.95;;;;;;;;;;6211506;23;20160;-88
2021/03/18 04:48:40;;;;;;;9.90;8.93;;;;;;;;;;6186018;23;20194;-85
2021/03/18 04:51:08;;;;;;;10.25;7.90;;;;;;;;;;6111564;23;20150;-88
2021/03/18 04:53:34;;;;;;;9.65;8.85;;;;;;;;;;6213378;23;20263;-88
2021/03/18 04:56:00;;;;;;;8.38;7.63;;;;;;;;;;6213363;23;20165;-88
2021/03/18 04:58:26;;;;;;;10.07;9.20;;;;;;;;;;6213011;23;20161;-88
2021/03/18 05:00:53;;;;;;;8.63;7.63;;;;;;;;;;6213748;23;20169;-87
2021/03/18 05:03:19;;;;;;;8.73;8.02;;;;;;;;;;6211964;23;20173;-88
2021/03/18 05:05:45;;;;;;;8.95;8.15;;;;;;;;;;6212457;23;20146;-89
2021/03/18 05:08:11;;;;;;;8.40;7.78;;;;;;;;;;6110971;23;20146;-87
2021/03/18 05:10:41;;;;;;;8.32;7.05;;;;;;;;;;6209355;23;20150;-89
2021/03/18 05:13:09;;;;;;;8.98;8.25;;;;;;;;;;6214277;23;20150;-88
2021/03/18 05:15:36;;;;;;;9.68;8.85;;;;;;;;;;6221176;23;20162;-87
2021/03/18 05:18:08;;;;;;;15.85;9.77;;;;;;;;;;6214948;23;20183;-88
2021/03/18 05:20:34;;;;;;;8.95;8.05;;;;;;;;;;6208311;23;20397;-88
2021/03/18 05:23:00;;;;;;;8.82;8.20;;;;;;;;;;6112494;23;20142;-89
2021/03/18 05:25:29;;;;;;;13.15;9.55;;;1.90;97.90;;;;;;6212593;23;20158;-88
2021/03/18 05:27:55;;;;;;;9.90;8.90;;;1.60;96.90;;;;;;6110312;23;20229;-89
2021/03/18 05:30:27;;;;;;;9.88;8.88;;;1.50;98.80;;;;;;6085601;23;20154;-89
2021/03/18 05:32:54;;;;;;;10.82;9.95;;;1.20;97.10;;;;;;6086071;23;20161;-88
2021/03/18 05:35:20;;;;;;;9.32;8.55;;;1.50;95.90;;;;;;6109416;23;20150;-88
2021/03/18 05:37:46;;;;;;;11.20;9.93;;;1.60;96.30;;;;;;6084421;23;20154;-88
2021/03/18 05:40:15;;;;;;;10.10;9.27;;;1.70;95.60;;;;;;6082059;23;20157;-88
2021/03/18 05:42:41;;;;;;;9.63;8.30;;;1.80;95.60;;;;;;6082355;23;20157;-88
2021/03/18 05:45:10;;;;;;;9.53;8.60;;;1.70;95.10;;;;;;6083036;23;20165;-88
2021/03/18 05:47:36;;;;;;;9.80;9.02;;;1.70;95.10;;;;;;6085119;23;20522;-87
2021/03/18 05:50:23;;;;;;;13.60;9.63;;;1.60;96.30;;;;;;6084406;23;20228;-87
2021/03/18 05:52:50;;;;;;;10.60;9.57;;;1.70;96.50;;;;;;6106954;23;20150;-87
2021/03/18 05:55:19;;;;;;;12.25;9.80;;;1.50;96.30;;;;;;6087528;23;20173;-88
2021/03/18 05:57:50;;;;;;;10.73;9.80;;;1.70;94.10;;;;;;6085148;23;20157;-88
2021/03/18 06:00:17;;;;;;;12.90;9.57;;;2.10;93.90;;;;;;6107732;23;20474;-88
2021/03/18 06:02:43;;;;;;;10.70;10.00;;;2.20;96.10;;;;;;6081192;23;20166;-88
2021/03/18 06:05:11;;;;;;;16.47;10.50;;;1.60;96.00;;;;;;6082896;23;20170;-88
2021/03/18 06:07:46;;;;;;;9.70;8.75;;;1.70;96.10;;;;;;6114306;23;20142;-87
2021/03/18 06:10:18;;;;;;;12.32;10.57;;;1.80;94.90;;;;;;6090473;23;20150;-89
2021/03/18 06:12:46;;;;;;;11.10;9.45;;;1.80;96.00;;;;;;6088691;23;20158;-89
2021/03/18 06:15:15;;;;;;;11.05;9.95;;;1.90;95.00;;;;;;6114164;23;20202;-88
2021/03/18 06:17:45;;;;;;;14.13;11.00;;;1.90;94.80;;;;;;6113272;23;20293;-89
2021/03/18 06:20:16;;;;;;;11.25;10.25;;;1.90;96.70;;;;;;6189604;23;20141;-87
2021/03/18 06:22:46;;;;;;;12.90;11.75;;;1.90;96.90;;;;;;6188423;23;20211;-89
2021/03/18 06:25:28;;;;;;;12.55;11.35;;;1.90;96.40;;;;;;6085878;23;20150;-89
2021/03/18 06:28:24;;;;;;;12.13;10.93;;;1.90;94.70;;;;;;6086530;23;20174;-87
2021/03/18 06:31:03;;;;;;;11.68;10.43;;;1.90;95.00;;;;;;6214094;23;20161;-89
2021/03/18 06:33:35;;;;;;;10.55;9.50;;;2.00;96.60;;;;;;6087030;23;20154;-89
2021/03/18 06:36:15;;;;;;;12.70;11.02;;;1.90;96.60;;;;;;6112386;23;20138;-89
2021/03/18 06:38:41;;;;;;;11.38;10.30;;;2.00;96.40;;;;;;6085791;23;20154;-89
2021/03/18 06:41:12;;;;;;;11.60;10.50;;;2.10;96.10;;;;;;6163482;23;20250;-88
2021/03/18 06:43:44;;;;;;;11.73;10.82;;;2.10;96.40;;;;;;6086175;23;20153;-89
2021/03/18 06:46:39;;;;;;;12.15;11.10;;;2.10;96.40;;;;;;6213083;23;20166;-89
2021/03/18 06:49:13;;;;;;;11.48;10.30;;;2.10;96.90;;;;;;6111563;23;20158;-87
2021/03/18 06:51:43;;;;;;;12.50;11.43;;;2.20;92.60;;;;;;6086067;23;20157;-87
2021/03/18 06:54:22;;;;;;;9.68;8.88;;;2.40;93.40;;;;;;6209864;23;20208;-88
2021/03/18 06:57:03;;;;;;;11.98;10.75;;;2.50;94.00;;;;;;6091588;23;20158;-89
2021/03/18 06:59:57;;;;;;;9.95;9.15;;;3.20;92.60;;;;;;6085447;23;20199;-87
2021/03/18 07:02:23;;;;;;;11.55;10.45;;;2.90;92.90;;;;;;6087400;23;20166;-89
2021/03/18 07:04:54;;;;;;;12.40;10.00;;;2.90;93.70;;;;;;6113469;23;20158;-88
2021/03/18 07:07:22;;;;;;;9.70;8.90;;;;;;;;;;6082382;23;20161;-89
2021/03/18 07:09:58;;;;;;;12.68;9.88;;;3.10;95.90;;;;;;6186599;23;20158;-89
2021/03/18 07:12:31;;;;;;;9.50;8.80;;;3.10;95.50;;;;;;6085170;23;20154;-89
2021/03/18 07:15:25;;;;;;;10.35;9.23;;;3.20;94.50;;;;;;6108738;23;20161;-89
2021/03/18 07:18:00;;;;;;;11.88;9.55;;;3.30;96.50;;;;;;6112459;23;20135;-87
2021/03/18 07:20:28;;;;;;;11.10;10.05;;;;;;;;;;6089040;23;20241;-88
2021/03/18 07:22:56;;;;;;;14.38;8.82;;;;;;;;;;6214172;23;20154;-89
2021/03/18 07:25:27;;;;;;;9.30;8.50;;;;;;;;;;6220858;23;20173;-89
2021/03/18 07:27:56;;;;;;;10.77;9.77;;;;;;;;;;6211158;23;20150;-89
2021/03/18 07:30:31;;;;;;;10.38;8.48;;;;;;;;;;6110386;23;20157;-88
2021/03/18 07:33:06;;;;;;;10.25;7.88;;;;;;;;;;6213878;23;20150;-89
2021/03/18 07:35:33;;;;;;;11.20;9.50;;;;;;;;;;6181512;23;20188;-88
2021/03/18 07:38:02;;;;;;;9.73;8.73;;;5.50;90.00;;;;;;6113561;23;20146;-88
2021/03/18 07:40:33;;;;;;;9.30;8.30;;;5.60;89.10;;;;;;6187344;23;20241;-88
2021/03/18 07:43:01;;;;;;;8.20;7.55;;;;;;;;;;6087592;23;20165;-89
2021/03/18 07:45:28;;;;;;;7.80;7.13;;;6.50;92.30;;;;;;6190560;23;20146;-89
2021/03/18 07:48:06;;;;;;;8.98;8.15;;;6.90;68.90;;;;;;6112831;23;20193;-88
2021/03/18 07:50:39;;;;;;;9.43;8.57;;;7.10;65.00;;;;;;6112672;23;20181;-87
2021/03/18 07:53:14;;;;;;;8.15;7.57;;;7.50;69.30;;;;;;6087027;23;20155;-89
2021/03/18 07:58:44;;;;;;;10.00;7.80;;;7.70;72.40;;;;;;6117851;23;20226;-90
2021/03/18 08:01:34;;;;;;;10.88;8.55;;;7.50;74.30;;;;;;6079526;23;20186;-87
2021/03/18 08:04:02;;;;;;;9.75;7.97;;;6.80;75.10;;;;;;6102530;23;20135;-88
2021/03/18 08:06:40;;;;;;;8.75;8.10;;;7.00;75.40;;;;;;6076945;23;20216;-87
2021/03/18 08:09:10;;;;;;;11.10;8.85;;;7.00;78.10;;;;;;6103148;23;20206;-87
2021/03/18 08:11:38;;;;;;;8.68;7.93;;;6.80;76.50;;;;;;6082630;23;20154;-87
2021/03/18 08:14:08;;;;;;;12.07;8.27;;;6.60;77.10;;;;;;6074308;23;20180;-88
2021/03/18 08:16:34;;;;;;;11.90;8.77;;;6.50;79.30;;;;;;6077322;23;20157;-86
2021/03/18 08:19:02;;;;;;;10.90;8.63;;;6.40;80.00;;;;;;6075952;23;20478;-85
2021/03/18 08:21:41;;;;;;;9.75;8.20;;;6.10;81.60;;;;;;6094264;23;20441;-85
2021/03/18 08:24:08;;;;;;;11.60;8.50;;;6.40;80.00;;;;;;6094845;23;20184;-84
2021/03/18 08:26:37;;;;;;;9.13;8.25;;;6.50;82.70;;;;;;6096621;23;20158;-86
2021/03/18 08:29:09;;;;;;;11.77;7.80;;;6.10;81.60;;;;;;6069116;23;20233;-85
2021/03/18 08:31:34;;;;;;;13.30;8.40;;;6.10;82.30;;;;;;6109007;23;20249;-87
2021/03/18 08:47:41;;;;;;;15.90;7.97;;;6.50;78.60;;;;;;6095601;22;20206;-88
2021/03/18 08:50:26;;;;;;;13.05;7.32;;;6.70;79.20;;;;;;6080040;23;20188;-88
2021/03/18 08:58:07;;;;;;;9.60;7.30;;;7.30;75.20;;;;;;6100438;23;20195;-87
2021/03/18 09:00:34;;;;;;;11.10;7.72;;;7.20;76.20;;;;;;6192832;23;20199;-87
2021/03/18 09:05:53;;;;;;;18.60;10.98;;;7.50;73.20;;;;;;6100470;23;20187;-90
2021/03/18 09:08:33;;;;;;;20.27;10.43;;;7.40;72.00;;;;;;6112499;23;20261;-87
2021/03/18 09:33:36;;;;;;;25.80;17.63;;;7.50;72.10;;;;;;6099535;23;20182;-88
2021/03/18 09:36:36;;;;;;;23.63;16.75;;;7.10;70.00;;;;;;6127966;23;20198;-86
2021/03/18 09:39:04;;;;;;;25.38;19.80;;;7.30;69.90;;;;;;6079064;22;20191;-87
2021/03/18 09:41:34;;;;;;;22.42;19.77;;;7.50;72.20;;;;;;6144231;23;20214;-86
2021/03/18 09:47:16;;;;;;;28.48;17.50;;;7.40;72.80;;;;;;6235807;23;20211;-88
2021/03/18 09:49:42;;;;;;;19.92;17.73;;;9.50;72.10;;;;;;6234926;23;20159;-86
2021/03/18 09:54:49;;;;;;;14.73;13.27;;;;;;;;;;6233059;23;20281;-89
2021/03/18 09:57:37;;;;;;;19.40;14.88;;;;;;;;;;6233991;22;20195;-88
2021/03/18 10:00:04;;;;;;;16.67;14.90;;;;;;;;;;6210920;23;20195;-88
2021/03/18 10:02:35;;;;;;;16.70;12.10;;;8.90;87.80;;;;;;6234010;23;20198;-88
2021/03/18 10:05:08;;;;;;;15.38;13.82;;;8.90;83.00;;;;;;6238828;23;20343;-90
2021/03/18 10:07:39;;;;;;;14.55;12.52;;;;;;;;;;6236309;23;20144;-89
2021/03/18 10:10:22;;;;;;;12.63;11.38;;;9.30;88.90;;;;;;6236389;23;20147;-89
2021/03/18 10:12:51;;;;;;;12.20;11.02;;;;;;;;;;6238343;23;20143;-88
2021/03/18 10:15:19;;;;;;;12.98;10.95;;;;;;;;;;6235954;23;20147;-86
2021/03/18 10:17:49;;;;;;;16.67;13.27;;;8.80;85.20;;;;;;6232008;23;20154;-89
2021/03/18 10:20:19;;;;;;;14.38;12.30;;;;;;;;;;6207203;23;20148;-85
2021/03/18 10:23:07;;;;;;;16.85;12.15;;;8.80;90.60;;;;;;6225359;23;20195;-86
2021/03/18 10:25:35;;;;;;;12.93;11.68;;;8.60;87.30;;;;;;6221943;23;20131;-85
2021/03/18 10:28:12;;;;;;;11.13;9.48;;;8.90;84.30;;;;;;6221297;23;20179;-86
2021/03/18 10:30:48;;;;;;;10.63;9.48;;;8.80;82.90;;;;;;6206109;22;20302;-88
2021/03/18 10:33:36;;;;;;;15.05;13.48;;;8.20;78.00;;;;;;6280353;22;20154;-90
2021/03/18 10:36:07;;;;;;;11.07;10.18;;;8.20;81.90;;;;;;6300659;22;20198;-88
2021/03/18 10:38:42;;;;;;;15.27;13.77;;;8.40;76.00;;;;;;6298426;22;20157;-89
2021/03/18 10:41:29;;;;;;;10.77;9.70;;;8.60;78.80;;;;;;6273903;22;20212;-87
2021/03/18 10:44:07;;;;;;;11.73;9.23;;;8.80;78.40;;;;;;6299400;22;20142;-88
2021/03/18 10:46:47;;;;;;;12.27;11.15;;;8.70;77.30;;;;;;6278524;22;21349;-91
2021/03/18 10:49:16;;;;;;;12.85;11.63;;;8.30;77.70;;;;;;6183307;23;20211;-88
2021/03/18 10:51:54;;;;;;;14.30;12.75;;;8.20;77.90;;;;;;6190117;22;20184;-87
2021/03/18 10:54:22;;;;;;;12.77;9.60;;;8.30;76.10;;;;;;6231260;22;20198;-90
2021/03/18 10:56:50;;;;;;;11.32;9.45;;;8.60;76.50;;;;;;6269929;22;20219;-90
2021/03/18 10:59:22;;;;;;;8.95;8.10;;;8.70;75.00;;;;;;6271546;22;20151;-88
2021/03/18 11:02:07;;;;;;;7.05;6.55;;;8.70;72.60;;;;;;6270425;23;20163;-89
2021/03/18 11:04:50;;;;;;;4.65;4.32;;;;;;;;;;6267686;22;20153;-89
2021/03/18 11:07:22;;;;;;;5.43;4.95;;;8.90;71.50;;;;;;6239152;23;20192;-89
2021/03/18 11:10:14;;;;;;;4.93;4.20;;;9.00;71.60;;;;;;6226959;23;20555;-88
2021/03/18 11:13:09;;;;;;;5.53;4.60;;;8.40;71.60;;;;;;6234169;23;20138;-91
2021/03/18 11:15:58;;;;;;;4.53;4.13;;;8.10;72.60;;;;;;6236087;23;20157;-90
2021/03/18 11:18:28;;;;;;;4.82;2.47;;;8.30;72.60;;;;;;6267223;23;20135;-87
2021/03/18 11:21:07;;;;;;;3.70;3.40;;;8.40;68.60;;;;;;6268853;23;20167;-88
2021/03/18 11:23:49;;;;;;;3.78;3.50;;;8.40;65.10;;;;;;6254265;22;20146;-89
2021/03/18 11:26:23;;;;;;;3.50;3.30;;;8.50;65.00;;;;;;6246883;22;20183;-88
2021/03/18 11:32:12;;;;;;;3.08;2.97;;;8.80;66.60;;;;;;6267739;22;20143;-89
2021/03/18 11:34:48;;;;;;;3.17;2.97;;;8.70;65.00;;;;;;6217428;22;20232;-89
2021/03/18 11:37:14;;;;;;;3.47;3.00;;;8.80;66.50;;;;;;6225088;23;20154;-89
2021/03/18 11:40:18;;;;;;;3.90;3.20;;;8.80;69.20;;;;;;6241867;22;20193;-88
2021/03/18 11:42:50;;;;;;;4.03;3.40;;;9.10;65.00;;;;;;6242414;22;20390;-88
2021/03/18 11:45:20;;;;;;;3.17;3.00;;;9.40;67.70;;;;;;6268707;22;20151;-86
2021/03/18 11:47:53;;;;;;;7.05;3.70;;;9.50;60.30;;;;;;6240671;23;20268;-88
2021/03/18 11:50:26;;;;;;;3.15;2.95;;;10.00;64.40;;;;;;6262436;23;20146;-89
2021/03/18 11:52:56;;;;;;;3.00;2.80;;;10.10;62.80;;;;;;6215484;23;20166;-91
2021/03/18 11:55:30;;;;;;;3.20;3.13;;;9.80;63.90;;;;;;6241659;23;20160;-89
2021/03/18 11:58:02;;;;;;;4.40;3.97;;;9.90;62.10;;;;;;6252617;22;20179;-90
2021/03/18 12:00:42;;;;;;;2.40;2.20;;;10.00;60.90;;;;;;6162795;22;20210;-89
2021/03/18 12:06:24;;;;;;;3.17;2.97;;;10.00;64.40;;;;;;6155852;23;20277;-89
2021/03/18 12:08:53;;;;;;;3.85;3.65;;;;;;;;;;6090919;23;20214;-90
2021/03/18 12:11:29;;;;;;;3.72;3.55;;;9.50;71.10;;;;;;6216234;23;20156;-88
2021/03/18 12:16:27;;;;;;;3.65;3.35;;;9.50;68.30;;;;;;6223444;22;20203;-89
2021/03/18 12:18:58;;;;;;;4.40;4.07;;;9.60;69.90;;;;;;6207291;23;20155;-89
2021/03/18 12:21:35;;;;;;;4.50;2.90;;;9.20;70.50;;;;;;6202166;23;20183;-87
2021/03/18 12:26:49;;;;;;;2.92;2.83;;;9.70;70.00;;;;;;6111608;22;20201;-88
2021/03/18 12:29:18;;;;;;;3.38;3.08;;;9.00;70.00;;;;;;6075160;23;20598;-88
2021/03/18 12:31:46;;;;;;;3.03;2.70;;;8.90;67.80;;;;;;6211543;23;20239;-89
2021/03/18 12:34:19;;;;;;;3.08;2.80;;;9.00;72.30;;;;;;6224070;23;20155;-89
2021/03/18 12:39:29;;;;;;;6.82;4.82;;;;;;;;;;6216573;23;20233;-89
2021/03/18 12:42:01;;;;;;;5.10;4.90;;;;;;;;;;6207494;23;20219;-89
2021/03/18 12:47:28;;;;;;;6.88;6.20;;;;;;;;;;6251820;23;20307;-89
2021/03/18 12:52:56;;;;;;;7.10;6.70;;;;;;;;;;6180988;23;20266;-89
2021/03/18 12:58:23;;;;;;;10.85;8.30;;;9.00;82.30;;;;;;6194469;23;20198;-88
2021/03/18 13:00:49;;;;;;;10.00;9.05;;;;;;;;;;6178653;23;20187;-87
2021/03/18 13:03:14;;;;;;;10.35;8.75;;;8.70;84.90;;;;;;6178107;23;20565;-89
2021/03/18 13:05:40;;;;;;;9.13;8.33;;;8.40;84.60;;;;;;6208545;23;20191;-89
2021/03/18 13:08:48;;;;;;;11.70;7.27;;;7.50;86.40;;;;;;6205984;23;20171;-88
2021/03/18 13:11:27;;;;;;;8.40;7.60;;;7.50;88.30;;;;;;6148338;23;20165;-88
2021/03/18 13:14:08;;;;;;;11.25;7.53;;;7.50;83.90;;;;;;6146160;23;20141;-89
2021/03/18 13:19:28;;;;;;;6.97;6.47;;;7.70;87.80;;;;;;6163359;22;20194;-88
2021/03/18 13:21:56;;;;;;;4.90;4.50;;;7.70;82.00;;;;;;6265732;22;20277;-87
2021/03/18 13:27:41;;;;;;;4.70;4.30;;;7.60;82.40;;;;;;6237999;22;20206;-88
2021/03/18 13:31:07;;;;;;;6.47;5.90;;;7.50;85.50;;;;;;6242573;23;20178;-87
2021/03/18 13:33:38;;;;;;;7.35;6.10;;;7.70;82.60;;;;;;6243438;23;20161;-88
2021/03/18 13:44:44;;;;;;;6.55;6.15;;;8.10;80.60;;;;;;6258353;22;20535;-89
2021/03/18 13:47:10;;;;;;;7.00;6.43;;;7.90;82.80;;;;;;6213898;23;20210;-88
2021/03/18 13:49:54;;;;;;;6.80;6.32;;;8.00;85.70;;;;;;6236324;23;20158;-87
2021/03/18 13:52:20;;;;;;;6.30;5.90;;;8.10;82.30;;;;;;6240649;23;20148;-89
2021/03/18 13:55:40;;;;;;;7.40;6.90;;;8.20;86.00;;;;;;6213870;23;20183;-90
2021/03/18 13:58:07;;;;;;;10.73;9.40;;;8.00;83.50;;;;;;6237191;23;20374;-88
2021/03/18 14:03:34;;;;;;;11.52;10.48;;;8.00;88.80;;;;;;6221747;22;20266;-89
2021/03/18 14:06:31;;;;;;;10.63;9.73;;;7.60;89.80;;;;;;6237132;22;20155;-89
2021/03/18 14:09:02;;;;;;;11.60;10.50;;;7.60;86.70;;;;;;6204077;23;20168;-88
2021/03/18 14:11:28;;;;;;;11.93;9.98;;;7.30;90.10;;;;;;6206785;23;20144;-87
2021/03/18 14:13:54;;;;;;;11.13;10.03;;;7.20;90.00;;;;;;6235452;23;20171;-87
2021/03/18 14:16:43;;;;;;;11.77;10.70;;;7.30;89.40;;;;;;6207557;23;20155;-90
2021/03/18 14:19:09;;;;;;;12.35;11.25;;;7.20;90.00;;;;;;6207398;23;20181;-89
2021/03/18 14:21:36;;;;;;;12.90;10.73;;;7.00;90.20;;;;;;6204904;23;20179;-87
2021/03/18 14:26:54;;;;;;;20.40;15.15;;;7.40;90.20;;;;;;6264862;22;20224;-88
2021/03/18 14:29:32;;;;;;;16.40;15.00;;;7.40;90.00;;;;;;6265564;23;20162;-89
2021/03/18 14:32:12;;;;;;;;;;;;;;;;;;;;;
2021/03/18 14:34:54;;;;;;;17.17;15.25;;;7.50;90.10;;;;;;6271071;22;20193;-88
2021/03/18 14:42:49;;;;;;;13.32;11.43;;;7.40;88.10;;;;;;6271283;22;20202;-86
2021/03/18 14:45:28;;;;;;;13.57;12.20;;;7.40;90.60;;;;;;6270499;22;20135;-86
2021/03/18 14:48:27;;;;;;;13.68;12.27;;;7.30;90.70;;;;;;6267967;23;20130;-88
2021/03/18 14:51:27;;;;;;;14.90;13.40;;;7.30;88.40;;;;;;6265250;23;20150;-89
2021/03/18 14:54:17;;;;;;;12.50;11.35;;;7.40;90.00;;;;;;6216811;23;20218;-88
2021/03/18 14:56:51;;;;;;;14.73;13.43;;;7.40;89.00;;;;;;6265960;23;20150;-88
2021/03/18 15:01:58;;;;;;;14.77;13.32;;;7.50;88.70;;;;;;6136576;22;20188;-88
2021/03/18 15:04:40;;;;;;;16.17;14.50;;;7.20;86.90;;;;;;6066380;23;20193;-87
2021/03/18 15:07:21;;;;;;;15.32;13.80;;;7.10;90.00;;;;;;6112353;23;20165;-87
2021/03/18 15:09:49;;;;;;;13.48;12.27;;;7.10;89.00;;;;;;6083101;23;20160;-87
2021/03/18 15:12:36;;;;;;;12.02;10.93;;;7.40;88.10;;;;;;6087809;23;20166;-87
2021/03/18 15:16:02;;;;;;;;;;;;;;;;;;;;;
2021/03/18 15:18:36;;;;;;;12.85;11.48;;;7.50;84.10;;;;;;6132892;23;20157;-88
2021/03/18 15:21:47;;;;;;;12.13;11.02;;;7.60;86.70;;;;;;6086148;23;20190;-89
2021/03/18 15:24:25;;;;;;;11.77;10.43;;;7.60;85.90;;;;;;6058643;23;20159;-88
2021/03/18 15:26:55;;;;;;;13.93;10.93;;;7.60;86.20;;;;;;6035560;23;20359;-87
2021/03/18 15:29:23;;;;;;;13.20;12.00;;;7.90;81.90;;;;;;6112008;22;20274;-85